Terminal Aerodrome Forecast
Issued by NWS

Home | Current Version | Previous Version | Text Only | Print | Product List | Glossary On
Versions: 1 2 3 4 5 6 7 8 9 10 11 12
000
FTUS45 KRIW 110500
TAFBPI
TAF
KBPI 110522Z 1106/1206 VRB06KT P6SM SCT080 BKN150
     FM112000 28008KT P6SM VCTS SCT070CB BKN110
     FM120200 VRB06KT P6SM SCT080 BKN150=

USA.gov is the U.S. government's official web portal to all federal, state and local government web resources and services.